sensor_id;sensor_type;location;lat;lon;timestamp;P1;durP1;ratioP1;P2;durP2;ratioP2
82374;SDS011;72005;50.496;15.798;2023-12-14T00:00:19;74.10;;;3.40;;
82374;SDS011;72005;50.496;15.798;2023-12-14T00:03:05;84.35;;;4.43;;
82374;SDS011;72005;50.496;15.798;2023-12-14T00:05:30;73.10;;;3.15;;
82374;SDS011;72005;50.496;15.798;2023-12-14T00:07:56;30.80;;;2.67;;
82374;SDS011;72005;50.496;15.798;2023-12-14T00:10:22;68.22;;;3.65;;
82374;SDS011;72005;50.496;15.798;2023-12-14T00:12:48;97.15;;;3.58;;
82374;SDS011;72005;50.496;15.798;2023-12-14T00:15:16;40.78;;;2.15;;
82374;SDS011;72005;50.496;15.798;2023-12-14T00:17:42;47.85;;;2.80;;
82374;SDS011;72005;50.496;15.798;2023-12-14T00:20:07;11.07;;;2.22;;
82374;SDS011;72005;50.496;15.798;2023-12-14T00:22:33;2.08;;;1.60;;
82374;SDS011;72005;50.496;15.798;2023-12-14T00:24:59;3.20;;;1.92;;
82374;SDS011;72005;50.496;15.798;2023-12-14T00:27:25;3.08;;;2.00;;
82374;SDS011;72005;50.496;15.798;2023-12-14T00:29:50;3.15;;;2.13;;
82374;SDS011;72005;50.496;15.798;2023-12-14T00:32:16;14.63;;;2.03;;
82374;SDS011;72005;50.496;15.798;2023-12-14T00:34:42;6.05;;;1.80;;
82374;SDS011;72005;50.496;15.798;2023-12-14T00:37:07;1.45;;;1.35;;
82374;SDS011;72005;50.496;15.798;2023-12-14T00:39:33;1.70;;;1.60;;
82374;SDS011;72005;50.496;15.798;2023-12-14T00:41:59;1.88;;;1.70;;
82374;SDS011;72005;50.496;15.798;2023-12-14T00:44:24;1.45;;;1.35;;
82374;SDS011;72005;50.496;15.798;2023-12-14T00:46:50;3.03;;;1.38;;
82374;SDS011;72005;50.496;15.798;2023-12-14T00:49:16;22.42;;;1.90;;
82374;SDS011;72005;50.496;15.798;2023-12-14T00:51:43;2.50;;;1.88;;
82374;SDS011;72005;50.496;15.798;2023-12-14T00:54:09;1.60;;;1.50;;
82374;SDS011;72005;50.496;15.798;2023-12-14T00:56:34;2.08;;;1.30;;
82374;SDS011;72005;50.496;15.798;2023-12-14T00:59:00;3.78;;;1.30;;
82374;SDS011;72005;50.496;15.798;2023-12-14T01:01:26;12.20;;;1.90;;
82374;SDS011;72005;50.496;15.798;2023-12-14T01:03:51;12.98;;;1.95;;
82374;SDS011;72005;50.496;15.798;2023-12-14T01:06:17;8.32;;;1.90;;
82374;SDS011;72005;50.496;15.798;2023-12-14T01:08:42;11.63;;;1.85;;
82374;SDS011;72005;50.496;15.798;2023-12-14T01:11:08;6.30;;;1.30;;
82374;SDS011;72005;50.496;15.798;2023-12-14T01:13:34;2.05;;;1.50;;
82374;SDS011;72005;50.496;15.798;2023-12-14T01:16:00;2.35;;;1.30;;
82374;SDS011;72005;50.496;15.798;2023-12-14T01:18:25;1.60;;;1.50;;
82374;SDS011;72005;50.496;15.798;2023-12-14T01:20:51;1.23;;;1.10;;
82374;SDS011;72005;50.496;15.798;2023-12-14T01:23:17;1.30;;;1.20;;
82374;SDS011;72005;50.496;15.798;2023-12-14T01:25:43;0.98;;;0.98;;
82374;SDS011;72005;50.496;15.798;2023-12-14T01:28:08;1.35;;;1.00;;
82374;SDS011;72005;50.496;15.798;2023-12-14T01:30:34;1.25;;;1.15;;
82374;SDS011;72005;50.496;15.798;2023-12-14T01:32:59;1.10;;;1.10;;
82374;SDS011;72005;50.496;15.798;2023-12-14T01:35:25;1.45;;;1.05;;
82374;SDS011;72005;50.496;15.798;2023-12-14T01:37:51;1.25;;;1.00;;
82374;SDS011;72005;50.496;15.798;2023-12-14T01:40:18;1.38;;;1.10;;
82374;SDS011;72005;50.496;15.798;2023-12-14T01:42:45;1.15;;;1.10;;
82374;SDS011;72005;50.496;15.798;2023-12-14T01:45:10;21.73;;;1.50;;
82374;SDS011;72005;50.496;15.798;2023-12-14T01:47:38;149.18;;;3.83;;
82374;SDS011;72005;50.496;15.798;2023-12-14T01:50:04;82.55;;;2.78;;
82374;SDS011;72005;50.496;15.798;2023-12-14T01:52:30;116.13;;;4.05;;
82374;SDS011;72005;50.496;15.798;2023-12-14T01:54:55;128.60;;;3.53;;
82374;SDS011;72005;50.496;15.798;2023-12-14T01:57:24;149.45;;;3.78;;
82374;SDS011;72005;50.496;15.798;2023-12-14T01:59:50;206.98;;;5.15;;
82374;SDS011;72005;50.496;15.798;2023-12-14T02:02:15;86.15;;;2.70;;
82374;SDS011;72005;50.496;15.798;2023-12-14T02:04:41;29.17;;;1.80;;
82374;SDS011;72005;50.496;15.798;2023-12-14T02:07:07;60.53;;;2.33;;
82374;SDS011;72005;50.496;15.798;2023-12-14T02:09:33;53.10;;;2.28;;
82374;SDS011;72005;50.496;15.798;2023-12-14T02:11:58;29.90;;;1.73;;
82374;SDS011;72005;50.496;15.798;2023-12-14T02:14:24;1.42;;;1.30;;
82374;SDS011;72005;50.496;15.798;2023-12-14T02:16:49;1.30;;;1.00;;
82374;SDS011;72005;50.496;15.798;2023-12-14T02:19:15;1.35;;;1.25;;
82374;SDS011;72005;50.496;15.798;2023-12-14T02:21:41;1.83;;;1.50;;
82374;SDS011;72005;50.496;15.798;2023-12-14T02:24:07;2.67;;;1.15;;
82374;SDS011;72005;50.496;15.798;2023-12-14T02:26:33;2.80;;;1.38;;
82374;SDS011;72005;50.496;15.798;2023-12-14T02:28:59;1.88;;;1.50;;
82374;SDS011;72005;50.496;15.798;2023-12-14T02:31:24;1.30;;;1.20;;
82374;SDS011;72005;50.496;15.798;2023-12-14T02:33:50;1.63;;;1.33;;
82374;SDS011;72005;50.496;15.798;2023-12-14T02:36:16;2.35;;;1.33;;
82374;SDS011;72005;50.496;15.798;2023-12-14T02:38:41;9.23;;;1.40;;
82374;SDS011;72005;50.496;15.798;2023-12-14T02:41:07;12.07;;;1.70;;
82374;SDS011;72005;50.496;15.798;2023-12-14T02:43:33;111.65;;;3.63;;
82374;SDS011;72005;50.496;15.798;2023-12-14T02:45:58;47.28;;;2.65;;
82374;SDS011;72005;50.496;15.798;2023-12-14T02:48:27;39.85;;;2.38;;
82374;SDS011;72005;50.496;15.798;2023-12-14T02:50:56;9.27;;;2.05;;
82374;SDS011;72005;50.496;15.798;2023-12-14T02:53:22;6.47;;;2.63;;
82374;SDS011;72005;50.496;15.798;2023-12-14T02:55:47;3.50;;;2.60;;
82374;SDS011;72005;50.496;15.798;2023-12-14T02:58:13;3.17;;;2.63;;
82374;SDS011;72005;50.496;15.798;2023-12-14T03:00:39;2.95;;;2.15;;
82374;SDS011;72005;50.496;15.798;2023-12-14T03:03:04;2.67;;;2.20;;
82374;SDS011;72005;50.496;15.798;2023-12-14T03:05:30;2.80;;;2.00;;
82374;SDS011;72005;50.496;15.798;2023-12-14T03:07:56;2.28;;;1.88;;
82374;SDS011;72005;50.496;15.798;2023-12-14T03:10:21;2.92;;;2.00;;
82374;SDS011;72005;50.496;15.798;2023-12-14T03:12:47;1.88;;;1.77;;
82374;SDS011;72005;50.496;15.798;2023-12-14T03:15:13;2.47;;;1.85;;
82374;SDS011;72005;50.496;15.798;2023-12-14T03:17:43;1.90;;;1.73;;
82374;SDS011;72005;50.496;15.798;2023-12-14T03:20:09;1.80;;;1.45;;
82374;SDS011;72005;50.496;15.798;2023-12-14T03:22:35;1.80;;;1.60;;
82374;SDS011;72005;50.496;15.798;2023-12-14T03:25:00;2.78;;;1.88;;
82374;SDS011;72005;50.496;15.798;2023-12-14T03:27:26;1.83;;;1.50;;
82374;SDS011;72005;50.496;15.798;2023-12-14T03:29:52;1.98;;;1.70;;
82374;SDS011;72005;50.496;15.798;2023-12-14T03:32:17;1.50;;;1.40;;
82374;SDS011;72005;50.496;15.798;2023-12-14T03:34:43;2.13;;;1.70;;
82374;SDS011;72005;50.496;15.798;2023-12-14T03:37:09;2.28;;;1.75;;
82374;SDS011;72005;50.496;15.798;2023-12-14T03:39:34;2.78;;;1.67;;
82374;SDS011;72005;50.496;15.798;2023-12-14T03:42:00;1.95;;;1.40;;
82374;SDS011;72005;50.496;15.798;2023-12-14T03:44:25;1.40;;;1.30;;
82374;SDS011;72005;50.496;15.798;2023-12-14T03:46:51;1.42;;;1.20;;
82374;SDS011;72005;50.496;15.798;2023-12-14T03:49:17;1.40;;;1.30;;
82374;SDS011;72005;50.496;15.798;2023-12-14T03:51:42;1.63;;;1.40;;
82374;SDS011;72005;50.496;15.798;2023-12-14T03:54:08;2.85;;;1.30;;
82374;SDS011;72005;50.496;15.798;2023-12-14T03:56:34;1.38;;;1.10;;
82374;SDS011;72005;50.496;15.798;2023-12-14T03:58:59;2.08;;;1.50;;
82374;SDS011;72005;50.496;15.798;2023-12-14T04:01:25;1.60;;;1.50;;
82374;SDS011;72005;50.496;15.798;2023-12-14T04:03:51;1.50;;;1.40;;
82374;SDS011;72005;50.496;15.798;2023-12-14T04:06:16;2.42;;;1.30;;
82374;SDS011;72005;50.496;15.798;2023-12-14T04:08:42;1.70;;;1.60;;
82374;SDS011;72005;50.496;15.798;2023-12-14T04:11:08;1.88;;;1.55;;
82374;SDS011;72005;50.496;15.798;2023-12-14T04:13:34;1.63;;;1.52;;
82374;SDS011;72005;50.496;15.798;2023-12-14T04:16:00;2.15;;;1.63;;
82374;SDS011;72005;50.496;15.798;2023-12-14T04:18:26;2.13;;;1.85;;
82374;SDS011;72005;50.496;15.798;2023-12-14T04:20:52;3.50;;;1.80;;
82374;SDS011;72005;50.496;15.798;2023-12-14T04:23:18;3.10;;;1.70;;
82374;SDS011;72005;50.496;15.798;2023-12-14T04:25:44;3.17;;;1.85;;
82374;SDS011;72005;50.496;15.798;2023-12-14T04:28:09;6.15;;;2.10;;
82374;SDS011;72005;50.496;15.798;2023-12-14T04:30:35;4.00;;;1.90;;
82374;SDS011;72005;50.496;15.798;2023-12-14T04:33:01;2.15;;;1.83;;
82374;SDS011;72005;50.496;15.798;2023-12-14T04:35:27;1.70;;;1.60;;
82374;SDS011;72005;50.496;15.798;2023-12-14T04:37:52;1.65;;;1.55;;
82374;SDS011;72005;50.496;15.798;2023-12-14T04:40:18;2.90;;;1.63;;
82374;SDS011;72005;50.496;15.798;2023-12-14T04:42:44;1.52;;;1.42;;
82374;SDS011;72005;50.496;15.798;2023-12-14T04:45:10;1.50;;;1.40;;
82374;SDS011;72005;50.496;15.798;2023-12-14T04:47:36;2.28;;;1.30;;
82374;SDS011;72005;50.496;15.798;2023-12-14T04:50:02;1.25;;;1.15;;
82374;SDS011;72005;50.496;15.798;2023-12-14T04:52:28;1.60;;;1.50;;
82374;SDS011;72005;50.496;15.798;2023-12-14T04:54:54;2.38;;;1.98;;
82374;SDS011;72005;50.496;15.798;2023-12-14T04:57:20;2.08;;;1.88;;
82374;SDS011;72005;50.496;15.798;2023-12-14T04:59:46;2.55;;;1.90;;
82374;SDS011;72005;50.496;15.798;2023-12-14T05:02:11;2.50;;;2.03;;
82374;SDS011;72005;50.496;15.798;2023-12-14T05:04:37;8.70;;;1.52;;
82374;SDS011;72005;50.496;15.798;2023-12-14T05:07:03;76.32;;;2.88;;
82374;SDS011;72005;50.496;15.798;2023-12-14T05:09:29;12.00;;;1.70;;
82374;SDS011;72005;50.496;15.798;2023-12-14T05:11:54;41.80;;;3.05;;
82374;SDS011;72005;50.496;15.798;2023-12-14T05:14:20;82.28;;;2.95;;
82374;SDS011;72005;50.496;15.798;2023-12-14T05:16:46;121.75;;;3.60;;
82374;SDS011;72005;50.496;15.798;2023-12-14T05:19:11;62.17;;;3.25;;
82374;SDS011;72005;50.496;15.798;2023-12-14T05:21:40;31.45;;;2.45;;
82374;SDS011;72005;50.496;15.798;2023-12-14T05:24:06;18.17;;;1.98;;
82374;SDS011;72005;50.496;15.798;2023-12-14T05:26:31;8.68;;;1.77;;
82374;SDS011;72005;50.496;15.798;2023-12-14T05:28:57;4.63;;;1.45;;
82374;SDS011;72005;50.496;15.798;2023-12-14T05:31:23;3.03;;;1.80;;
82374;SDS011;72005;50.496;15.798;2023-12-14T05:33:49;2.33;;;1.83;;
82374;SDS011;72005;50.496;15.798;2023-12-14T05:36:14;2.95;;;2.15;;
82374;SDS011;72005;50.496;15.798;2023-12-14T05:38:40;3.25;;;2.25;;
82374;SDS011;72005;50.496;15.798;2023-12-14T05:41:07;2.97;;;2.45;;
82374;SDS011;72005;50.496;15.798;2023-12-14T05:43:33;3.10;;;2.63;;
82374;SDS011;72005;50.496;15.798;2023-12-14T05:45:58;3.30;;;2.70;;
82374;SDS011;72005;50.496;15.798;2023-12-14T05:48:24;5.00;;;2.78;;
82374;SDS011;72005;50.496;15.798;2023-12-14T05:50:52;5.07;;;3.30;;
82374;SDS011;72005;50.496;15.798;2023-12-14T05:53:18;5.50;;;3.45;;
82374;SDS011;72005;50.496;15.798;2023-12-14T05:55:43;4.13;;;2.92;;
82374;SDS011;72005;50.496;15.798;2023-12-14T05:58:19;4.82;;;3.10;;
82374;SDS011;72005;50.496;15.798;2023-12-14T06:00:44;5.40;;;3.10;;
82374;SDS011;72005;50.496;15.798;2023-12-14T06:03:10;4.88;;;3.60;;
82374;SDS011;72005;50.496;15.798;2023-12-14T06:05:36;3.95;;;3.00;;
82374;SDS011;72005;50.496;15.798;2023-12-14T06:08:01;4.75;;;3.30;;
82374;SDS011;72005;50.496;15.798;2023-12-14T06:10:27;4.78;;;3.60;;
82374;SDS011;72005;50.496;15.798;2023-12-14T06:12:54;4.82;;;3.63;;
82374;SDS011;72005;50.496;15.798;2023-12-14T06:15:20;4.78;;;3.50;;
82374;SDS011;72005;50.496;15.798;2023-12-14T06:17:46;5.22;;;3.42;;
82374;SDS011;72005;50.496;15.798;2023-12-14T06:20:11;3.75;;;3.20;;
82374;SDS011;72005;50.496;15.798;2023-12-14T06:22:37;5.05;;;3.30;;
82374;SDS011;72005;50.496;15.798;2023-12-14T06:25:04;5.03;;;3.30;;
82374;SDS011;72005;50.496;15.798;2023-12-14T06:27:30;3.72;;;3.25;;
82374;SDS011;72005;50.496;15.798;2023-12-14T06:29:55;5.00;;;3.70;;
82374;SDS011;72005;50.496;15.798;2023-12-14T06:32:22;4.82;;;3.30;;
82374;SDS011;72005;50.496;15.798;2023-12-14T06:34:47;5.47;;;3.63;;
82374;SDS011;72005;50.496;15.798;2023-12-14T06:37:13;3.88;;;3.38;;
82374;SDS011;72005;50.496;15.798;2023-12-14T06:39:42;5.93;;;3.78;;
82374;SDS011;72005;50.496;15.798;2023-12-14T06:42:08;4.72;;;3.38;;
82374;SDS011;72005;50.496;15.798;2023-12-14T06:44:34;5.85;;;3.60;;
82374;SDS011;72005;50.496;15.798;2023-12-14T06:47:00;5.88;;;3.85;;
82374;SDS011;72005;50.496;15.798;2023-12-14T06:49:25;4.93;;;3.47;;
82374;SDS011;72005;50.496;15.798;2023-12-14T06:51:51;43.85;;;29.08;;
82374;SDS011;72005;50.496;15.798;2023-12-14T06:54:17;32.60;;;21.30;;
82374;SDS011;72005;50.496;15.798;2023-12-14T06:56:43;24.73;;;16.60;;
82374;SDS011;72005;50.496;15.798;2023-12-14T06:59:08;17.00;;;10.15;;
82374;SDS011;72005;50.496;15.798;2023-12-14T07:01:34;18.63;;;12.20;;
82374;SDS011;72005;50.496;15.798;2023-12-14T07:04:00;11.68;;;7.85;;
82374;SDS011;72005;50.496;15.798;2023-12-14T07:06:28;10.52;;;8.10;;
82374;SDS011;72005;50.496;15.798;2023-12-14T07:08:54;15.55;;;9.30;;
82374;SDS011;72005;50.496;15.798;2023-12-14T07:11:20;12.02;;;7.78;;
82374;SDS011;72005;50.496;15.798;2023-12-14T07:13:45;7.50;;;5.45;;
82374;SDS011;72005;50.496;15.798;2023-12-14T07:16:12;5.57;;;4.05;;
82374;SDS011;72005;50.496;15.798;2023-12-14T07:18:38;10.75;;;4.72;;
82374;SDS011;72005;50.496;15.798;2023-12-14T07:21:05;4.65;;;3.95;;
82374;SDS011;72005;50.496;15.798;2023-12-14T07:23:32;10.98;;;5.93;;
82374;SDS011;72005;50.496;15.798;2023-12-14T07:25:59;9.25;;;5.35;;
82374;SDS011;72005;50.496;15.798;2023-12-14T07:28:25;6.55;;;3.67;;
82374;SDS011;72005;50.496;15.798;2023-12-14T07:30:51;5.60;;;3.25;;
82374;SDS011;72005;50.496;15.798;2023-12-14T07:33:17;6.35;;;3.90;;
82374;SDS011;72005;50.496;15.798;2023-12-14T07:35:43;8.45;;;3.50;;
82374;SDS011;72005;50.496;15.798;2023-12-14T07:38:12;5.75;;;3.78;;
82374;SDS011;72005;50.496;15.798;2023-12-14T07:40:38;8.00;;;4.28;;
82374;SDS011;72005;50.496;15.798;2023-12-14T07:43:05;21.33;;;8.25;;
82374;SDS011;72005;50.496;15.798;2023-12-14T07:45:31;33.15;;;10.10;;
82374;SDS011;72005;50.496;15.798;2023-12-14T07:47:56;37.08;;;12.20;;
82374;SDS011;72005;50.496;15.798;2023-12-14T07:50:23;36.38;;;13.63;;
82374;SDS011;72005;50.496;15.798;2023-12-14T07:52:49;79.30;;;17.75;;
82374;SDS011;72005;50.496;15.798;2023-12-14T07:55:15;141.45;;;15.70;;
82374;SDS011;72005;50.496;15.798;2023-12-14T07:57:41;211.32;;;11.63;;
82374;SDS011;72005;50.496;15.798;2023-12-14T08:00:07;128.55;;;11.50;;
82374;SDS011;72005;50.496;15.798;2023-12-14T08:02:36;206.80;;;11.88;;
82374;SDS011;72005;50.496;15.798;2023-12-14T08:05:02;145.55;;;9.05;;
82374;SDS011;72005;50.496;15.798;2023-12-14T08:07:28;157.98;;;10.77;;
82374;SDS011;72005;50.496;15.798;2023-12-14T08:09:55;155.50;;;10.93;;
82374;SDS011;72005;50.496;15.798;2023-12-14T08:12:21;95.53;;;9.77;;
82374;SDS011;72005;50.496;15.798;2023-12-14T08:14:50;79.10;;;9.73;;
82374;SDS011;72005;50.496;15.798;2023-12-14T08:17:16;143.15;;;9.57;;
82374;SDS011;72005;50.496;15.798;2023-12-14T08:19:42;81.78;;;8.57;;
82374;SDS011;72005;50.496;15.798;2023-12-14T08:22:08;63.38;;;9.20;;
82374;SDS011;72005;50.496;15.798;2023-12-14T08:24:37;163.57;;;11.13;;
82374;SDS011;72005;50.496;15.798;2023-12-14T08:27:02;64.10;;;8.82;;
82374;SDS011;72005;50.496;15.798;2023-12-14T08:29:28;115.65;;;9.20;;
82374;SDS011;72005;50.496;15.798;2023-12-14T08:31:54;131.82;;;13.23;;
82374;SDS011;72005;50.496;15.798;2023-12-14T08:34:24;79.38;;;9.95;;
82374;SDS011;72005;50.496;15.798;2023-12-14T08:36:50;68.13;;;8.93;;
82374;SDS011;72005;50.496;15.798;2023-12-14T08:39:16;51.88;;;7.70;;
82374;SDS011;72005;50.496;15.798;2023-12-14T08:41:42;31.67;;;5.68;;
82374;SDS011;72005;50.496;15.798;2023-12-14T08:44:10;72.35;;;18.50;;
82374;SDS011;72005;50.496;15.798;2023-12-14T08:46:42;31.33;;;6.55;;
82374;SDS011;72005;50.496;15.798;2023-12-14T08:49:10;25.95;;;5.30;;
82374;SDS011;72005;50.496;15.798;2023-12-14T08:51:36;26.58;;;6.70;;
82374;SDS011;72005;50.496;15.798;2023-12-14T08:54:02;19.83;;;6.13;;
82374;SDS011;72005;50.496;15.798;2023-12-14T08:56:27;17.80;;;5.03;;
82374;SDS011;72005;50.496;15.798;2023-12-14T08:58:53;14.23;;;5.40;;
82374;SDS011;72005;50.496;15.798;2023-12-14T09:01:19;26.73;;;5.30;;
82374;SDS011;72005;50.496;15.798;2023-12-14T09:03:46;24.48;;;5.57;;
82374;SDS011;72005;50.496;15.798;2023-12-14T09:06:12;44.08;;;6.38;;
82374;SDS011;72005;50.496;15.798;2023-12-14T09:08:38;30.05;;;5.68;;
82374;SDS011;72005;50.496;15.798;2023-12-14T09:11:05;33.88;;;5.82;;
82374;SDS011;72005;50.496;15.798;2023-12-14T09:13:30;25.42;;;5.57;;
82374;SDS011;72005;50.496;15.798;2023-12-14T09:15:56;35.88;;;5.35;;
82374;SDS011;72005;50.496;15.798;2023-12-14T09:18:22;7.38;;;4.80;;
82374;SDS011;72005;50.496;15.798;2023-12-14T09:20:48;9.02;;;5.85;;
82374;SDS011;72005;50.496;15.798;2023-12-14T09:23:15;20.52;;;6.65;;
82374;SDS011;72005;50.496;15.798;2023-12-14T09:25:42;26.88;;;5.32;;
82374;SDS011;72005;50.496;15.798;2023-12-14T09:28:07;19.60;;;6.38;;
82374;SDS011;72005;50.496;15.798;2023-12-14T09:30:33;8.90;;;5.82;;
82374;SDS011;72005;50.496;15.798;2023-12-14T09:32:59;11.07;;;5.30;;
82374;SDS011;72005;50.496;15.798;2023-12-14T09:35:24;14.30;;;5.40;;
82374;SDS011;72005;50.496;15.798;2023-12-14T09:37:50;15.32;;;7.10;;
82374;SDS011;72005;50.496;15.798;2023-12-14T09:40:16;16.55;;;6.72;;
82374;SDS011;72005;50.496;15.798;2023-12-14T09:42:43;25.05;;;6.18;;
82374;SDS011;72005;50.496;15.798;2023-12-14T09:45:10;23.95;;;6.45;;
82374;SDS011;72005;50.496;15.798;2023-12-14T09:47:37;13.20;;;5.65;;
82374;SDS011;72005;50.496;15.798;2023-12-14T09:50:03;56.30;;;5.60;;
82374;SDS011;72005;50.496;15.798;2023-12-14T09:52:30;35.95;;;6.45;;
82374;SDS011;72005;50.496;15.798;2023-12-14T09:54:57;37.78;;;5.68;;
82374;SDS011;72005;50.496;15.798;2023-12-14T09:57:23;69.25;;;6.35;;
82374;SDS011;72005;50.496;15.798;2023-12-14T09:59:51;98.65;;;7.18;;
82374;SDS011;72005;50.496;15.798;2023-12-14T10:02:17;37.55;;;5.55;;
82374;SDS011;72005;50.496;15.798;2023-12-14T10:04:43;87.75;;;6.60;;
82374;SDS011;72005;50.496;15.798;2023-12-14T10:07:09;85.47;;;6.13;;
82374;SDS011;72005;50.496;15.798;2023-12-14T10:09:36;75.30;;;6.90;;
82374;SDS011;72005;50.496;15.798;2023-12-14T10:12:04;35.70;;;7.30;;
82374;SDS011;72005;50.496;15.798;2023-12-14T10:14:31;27.38;;;6.20;;
82374;SDS011;72005;50.496;15.798;2023-12-14T10:16:57;12.70;;;7.75;;
82374;SDS011;72005;50.496;15.798;2023-12-14T10:19:23;10.23;;;6.57;;
82374;SDS011;72005;50.496;15.798;2023-12-14T10:21:55;11.85;;;6.63;;
82374;SDS011;72005;50.496;15.798;2023-12-14T10:24:20;8.35;;;5.80;;
82374;SDS011;72005;50.496;15.798;2023-12-14T10:26:47;10.38;;;7.28;;
82374;SDS011;72005;50.496;15.798;2023-12-14T10:29:13;11.35;;;7.53;;
82374;SDS011;72005;50.496;15.798;2023-12-14T10:31:39;11.07;;;7.25;;
82374;SDS011;72005;50.496;15.798;2023-12-14T10:34:04;27.20;;;7.22;;
82374;SDS011;72005;50.496;15.798;2023-12-14T10:36:30;24.45;;;10.70;;
82374;SDS011;72005;50.496;15.798;2023-12-14T10:38:58;45.80;;;16.65;;
82374;SDS011;72005;50.496;15.798;2023-12-14T10:41:25;46.58;;;11.55;;
82374;SDS011;72005;50.496;15.798;2023-12-14T10:43:53;33.08;;;11.10;;
82374;SDS011;72005;50.496;15.798;2023-12-14T10:46:20;34.75;;;10.38;;
82374;SDS011;72005;50.496;15.798;2023-12-14T10:48:49;24.23;;;9.88;;
82374;SDS011;72005;50.496;15.798;2023-12-14T10:51:20;20.60;;;9.80;;
82374;SDS011;72005;50.496;15.798;2023-12-14T10:53:47;20.27;;;11.48;;
82374;SDS011;72005;50.496;15.798;2023-12-14T10:56:15;16.90;;;8.80;;
82374;SDS011;72005;50.496;15.798;2023-12-14T10:58:52;21.80;;;10.65;;
82374;SDS011;72005;50.496;15.798;2023-12-14T11:01:22;30.52;;;13.45;;
82374;SDS011;72005;50.496;15.798;2023-12-14T11:03:49;22.05;;;11.90;;
82374;SDS011;72005;50.496;15.798;2023-12-14T11:06:21;23.48;;;12.10;;
82374;SDS011;72005;50.496;15.798;2023-12-14T11:09:07;21.52;;;10.93;;
82374;SDS011;72005;50.496;15.798;2023-12-14T11:11:47;24.67;;;12.20;;
82374;SDS011;72005;50.496;15.798;2023-12-14T11:14:22;22.67;;;11.88;;
82374;SDS011;72005;50.496;15.798;2023-12-14T11:16:50;21.80;;;12.50;;
82374;SDS011;72005;50.496;15.798;2023-12-14T11:21:48;18.20;;;10.50;;
82374;SDS011;72005;50.496;15.798;2023-12-14T11:24:20;19.77;;;11.73;;
82374;SDS011;72005;50.496;15.798;2023-12-14T11:26:48;21.05;;;11.32;;
82374;SDS011;72005;50.496;15.798;2023-12-14T11:29:15;15.70;;;8.52;;
82374;SDS011;72005;50.496;15.798;2023-12-14T11:31:41;22.02;;;7.85;;
82374;SDS011;72005;50.496;15.798;2023-12-14T11:34:06;17.92;;;9.38;;
82374;SDS011;72005;50.496;15.798;2023-12-14T11:36:33;23.40;;;9.43;;
82374;SDS011;72005;50.496;15.798;2023-12-14T11:38:58;18.10;;;9.65;;
82374;SDS011;72005;50.496;15.798;2023-12-14T11:41:24;24.10;;;10.80;;
82374;SDS011;72005;50.496;15.798;2023-12-14T11:43:51;15.07;;;8.80;;
82374;SDS011;72005;50.496;15.798;2023-12-14T11:46:17;16.85;;;9.30;;
82374;SDS011;72005;50.496;15.798;2023-12-14T11:48:44;19.40;;;9.32;;
82374;SDS011;72005;50.496;15.798;2023-12-14T11:51:11;17.08;;;9.80;;
82374;SDS011;72005;50.496;15.798;2023-12-14T11:53:38;21.92;;;10.35;;
82374;SDS011;72005;50.496;15.798;2023-12-14T11:56:04;23.45;;;13.02;;
82374;SDS011;72005;50.496;15.798;2023-12-14T11:58:33;24.30;;;13.30;;
82374;SDS011;72005;50.496;15.798;2023-12-14T12:01:17;20.70;;;10.50;;
82374;SDS011;72005;50.496;15.798;2023-12-14T12:03:46;19.75;;;12.05;;
82374;SDS011;72005;50.496;15.798;2023-12-14T12:06:22;22.00;;;12.35;;
82374;SDS011;72005;50.496;15.798;2023-12-14T12:08:49;66.00;;;16.23;;
82374;SDS011;72005;50.496;15.798;2023-12-14T12:11:16;49.90;;;19.67;;
82374;SDS011;72005;50.496;15.798;2023-12-14T12:13:42;38.53;;;18.50;;
82374;SDS011;72005;50.496;15.798;2023-12-14T12:16:08;34.45;;;16.45;;
82374;SDS011;72005;50.496;15.798;2023-12-14T12:18:34;42.90;;;19.20;;
82374;SDS011;72005;50.496;15.798;2023-12-14T12:21:00;48.50;;;23.13;;
82374;SDS011;72005;50.496;15.798;2023-12-14T12:23:29;68.60;;;27.85;;
82374;SDS011;72005;50.496;15.798;2023-12-14T12:25:55;58.50;;;26.20;;
82374;SDS011;72005;50.496;15.798;2023-12-14T12:28:21;68.60;;;25.95;;
82374;SDS011;72005;50.496;15.798;2023-12-14T12:30:47;71.07;;;26.30;;
82374;SDS011;72005;50.496;15.798;2023-12-14T12:33:13;50.88;;;21.65;;
82374;SDS011;72005;50.496;15.798;2023-12-14T12:35:39;56.83;;;23.63;;
82374;SDS011;72005;50.496;15.798;2023-12-14T12:38:05;29.15;;;14.48;;
82374;SDS011;72005;50.496;15.798;2023-12-14T12:40:30;22.40;;;11.27;;
82374;SDS011;72005;50.496;15.798;2023-12-14T12:42:58;17.23;;;10.20;;
82374;SDS011;72005;50.496;15.798;2023-12-14T12:45:24;15.35;;;9.50;;
82374;SDS011;72005;50.496;15.798;2023-12-14T12:47:52;15.43;;;9.30;;
82374;SDS011;72005;50.496;15.798;2023-12-14T12:50:19;19.15;;;9.15;;
82374;SDS011;72005;50.496;15.798;2023-12-14T12:52:45;22.23;;;12.82;;
82374;SDS011;72005;50.496;15.798;2023-12-14T12:55:14;43.08;;;24.90;;
82374;SDS011;72005;50.496;15.798;2023-12-14T12:57:40;35.35;;;19.67;;
82374;SDS011;72005;50.496;15.798;2023-12-14T13:00:07;38.13;;;21.33;;
82374;SDS011;72005;50.496;15.798;2023-12-14T13:02:37;36.67;;;20.15;;
82374;SDS011;72005;50.496;15.798;2023-12-14T13:05:08;31.63;;;17.85;;
82374;SDS011;72005;50.496;15.798;2023-12-14T13:07:38;29.42;;;17.50;;
82374;SDS011;72005;50.496;15.798;2023-12-14T13:10:04;26.10;;;16.17;;
82374;SDS011;72005;50.496;15.798;2023-12-14T13:12:31;22.80;;;12.32;;
82374;SDS011;72005;50.496;15.798;2023-12-14T13:14:58;36.95;;;21.00;;
82374;SDS011;72005;50.496;15.798;2023-12-14T13:17:24;38.38;;;24.50;;
82374;SDS011;72005;50.496;15.798;2023-12-14T13:19:50;36.17;;;22.52;;
82374;SDS011;72005;50.496;15.798;2023-12-14T13:22:16;32.20;;;15.77;;
82374;SDS011;72005;50.496;15.798;2023-12-14T13:24:42;22.70;;;13.40;;
82374;SDS011;72005;50.496;15.798;2023-12-14T13:27:08;20.55;;;9.98;;
82374;SDS011;72005;50.496;15.798;2023-12-14T13:29:34;9.27;;;6.35;;
82374;SDS011;72005;50.496;15.798;2023-12-14T13:32:00;10.98;;;7.63;;
82374;SDS011;72005;50.496;15.798;2023-12-14T13:34:27;14.85;;;7.05;;
82374;SDS011;72005;50.496;15.798;2023-12-14T13:36:53;13.00;;;7.15;;
82374;SDS011;72005;50.496;15.798;2023-12-14T13:39:20;11.95;;;7.38;;
82374;SDS011;72005;50.496;15.798;2023-12-14T13:41:45;14.15;;;7.88;;
82374;SDS011;72005;50.496;15.798;2023-12-14T13:44:11;9.70;;;6.88;;
82374;SDS011;72005;50.496;15.798;2023-12-14T13:46:37;10.30;;;5.88;;
82374;SDS011;72005;50.496;15.798;2023-12-14T13:49:02;9.90;;;6.32;;
82374;SDS011;72005;50.496;15.798;2023-12-14T13:51:28;11.32;;;6.60;;
82374;SDS011;72005;50.496;15.798;2023-12-14T13:53:54;10.82;;;6.57;;
82374;SDS011;72005;50.496;15.798;2023-12-14T13:56:20;12.15;;;6.30;;
82374;SDS011;72005;50.496;15.798;2023-12-14T13:58:46;10.10;;;6.70;;
82374;SDS011;72005;50.496;15.798;2023-12-14T14:01:12;10.57;;;6.35;;
82374;SDS011;72005;50.496;15.798;2023-12-14T14:03:40;9.57;;;5.95;;
82374;SDS011;72005;50.496;15.798;2023-12-14T14:06:06;10.65;;;7.38;;
82374;SDS011;72005;50.496;15.798;2023-12-14T14:08:33;11.85;;;8.05;;
82374;SDS011;72005;50.496;15.798;2023-12-14T14:11:00;13.70;;;9.07;;
82374;SDS011;72005;50.496;15.798;2023-12-14T14:13:27;10.20;;;7.00;;
82374;SDS011;72005;50.496;15.798;2023-12-14T14:15:53;8.27;;;5.15;;
82374;SDS011;72005;50.496;15.798;2023-12-14T14:18:19;10.23;;;6.40;;
82374;SDS011;72005;50.496;15.798;2023-12-14T14:20:45;11.25;;;6.70;;